createdAt,value
2022-11-22T00:01:06.062Z,16.40
2022-11-22T00:06:07.809Z,19.85
2022-11-22T00:08:39.109Z,23.53
2022-11-22T00:11:10.240Z,24.57
2022-11-22T00:13:41.580Z,24.38
2022-11-22T00:16:14.014Z,26.77
2022-11-22T00:18:46.108Z,27.40
2022-11-22T00:21:17.172Z,24.60
2022-11-22T00:23:48.301Z,24.98
2022-11-22T00:26:19.686Z,24.30
2022-11-22T00:28:51.177Z,24.55
2022-11-22T00:31:22.352Z,25.55
2022-11-22T00:33:53.471Z,25.27
2022-11-22T00:36:25.209Z,24.48
2022-11-22T00:41:27.031Z,25.67
2022-11-22T00:43:58.807Z,25.08
2022-11-22T00:46:29.983Z,25.67
2022-11-22T00:49:01.559Z,24.75
2022-11-22T00:51:32.775Z,26.00
2022-11-22T00:54:04.272Z,23.80
2022-11-22T00:56:35.712Z,21.42
2022-11-22T00:59:07.076Z,20.17
2022-11-22T01:01:38.201Z,19.77
2022-11-22T01:04:09.367Z,19.10
2022-11-22T01:06:40.634Z,19.53
2022-11-22T01:09:12.781Z,18.80
2022-11-22T01:14:16.111Z,18.50
2022-11-22T01:16:48.072Z,20.02
2022-11-22T01:19:19.222Z,19.67
2022-11-22T01:21:50.542Z,19.23
2022-11-22T01:24:21.678Z,19.77
2022-11-22T01:26:52.851Z,20.20
2022-11-22T01:29:24.525Z,19.98
2022-11-22T01:31:55.692Z,19.00
2022-11-22T01:34:27.420Z,18.67
2022-11-22T01:36:58.807Z,18.15
2022-11-22T01:42:01.404Z,18.20
2022-11-22T01:44:34.899Z,17.08
2022-11-22T01:47:23.258Z,17.13
2022-11-22T01:49:59.475Z,17.42
2022-11-22T01:52:34.577Z,17.63
2022-11-22T01:55:13.327Z,16.58
2022-11-22T01:57:46.691Z,17.30
2022-11-22T02:00:19.694Z,17.70
2022-11-22T02:02:58.149Z,16.98
2022-11-22T02:05:34.997Z,16.95
2022-11-22T02:08:29.789Z,16.75
2022-11-22T02:11:04.177Z,15.40
2022-11-22T02:13:40.916Z,16.55
2022-11-22T02:16:13.695Z,16.98
2022-11-22T02:18:45.151Z,16.77
2022-11-22T02:21:16.474Z,15.38
2022-11-22T02:24:07.062Z,16.05
2022-11-22T02:26:38.797Z,14.80
2022-11-22T02:29:10.614Z,15.57
2022-11-22T02:31:49.432Z,14.73
2022-11-22T02:34:20.537Z,14.38
2022-11-22T02:36:55.376Z,14.70
2022-11-22T02:39:33.020Z,15.05
2022-11-22T02:42:04.974Z,15.02
2022-11-22T02:44:36.665Z,14.67
2022-11-22T02:47:08.607Z,14.13
2022-11-22T02:49:39.685Z,14.02
2022-11-22T02:52:11.506Z,14.60
2022-11-22T02:54:42.576Z,13.80
2022-11-22T02:57:13.906Z,13.70
2022-11-22T02:59:45.571Z,14.00
2022-11-22T03:02:16.723Z,13.52
2022-11-22T03:04:49.253Z,13.17
2022-11-22T03:07:20.903Z,13.35
2022-11-22T03:09:52.186Z,14.37
2022-11-22T03:12:23.353Z,14.65
2022-11-22T03:14:54.893Z,14.30
2022-11-22T03:17:26.272Z,13.60
2022-11-22T03:19:57.325Z,13.43
2022-11-22T03:22:28.509Z,13.02
2022-11-22T03:24:59.700Z,13.83
2022-11-22T03:27:30.876Z,13.73
2022-11-22T03:30:02.230Z,13.03
2022-11-22T03:32:34.000Z,14.15
2022-11-22T03:35:06.051Z,13.85
2022-11-22T03:37:37.124Z,14.30
2022-11-22T03:40:09.011Z,14.13
2022-11-22T03:42:41.077Z,14.35
2022-11-22T03:45:12.632Z,14.23
2022-11-22T03:47:43.827Z,15.27
2022-11-22T03:50:14.988Z,15.43
2022-11-22T03:52:46.072Z,16.07
2022-11-22T03:55:17.291Z,15.27
2022-11-22T03:57:48.723Z,15.70
2022-11-22T04:00:20.574Z,15.27
2022-11-22T04:02:51.927Z,15.63
2022-11-22T04:05:23.800Z,15.77
2022-11-22T04:08:03.811Z,14.80
2022-11-22T04:10:34.968Z,15.35
2022-11-22T04:13:06.976Z,15.88
2022-11-22T04:15:39.406Z,15.63
2022-11-22T04:18:15.046Z,15.57
2022-11-22T04:21:04.426Z,13.50
2022-11-22T04:23:35.523Z,14.93
2022-11-22T04:26:06.720Z,14.17
2022-11-22T04:29:08.268Z,14.88
2022-11-22T04:31:47.318Z,14.00
2022-11-22T04:34:18.451Z,13.50
2022-11-22T04:36:50.040Z,13.37
2022-11-22T04:39:21.279Z,14.73
2022-11-22T04:42:16.070Z,14.45
2022-11-22T04:44:47.546Z,14.23
2022-11-22T04:47:38.309Z,13.73
2022-11-22T04:50:30.594Z,13.68
2022-11-22T04:53:01.798Z,13.77
2022-11-22T04:55:33.216Z,13.77
2022-11-22T04:58:04.834Z,13.65
2022-11-22T05:00:36.136Z,15.10
2022-11-22T05:03:07.805Z,13.93
2022-11-22T05:05:44.282Z,14.30
2022-11-22T05:08:16.199Z,14.13
2022-11-22T05:11:01.294Z,14.70
2022-11-22T05:13:41.473Z,13.57
2022-11-22T05:16:16.308Z,14.00
2022-11-22T05:19:00.400Z,13.90
2022-11-22T05:21:32.346Z,14.30
2022-11-22T05:24:04.264Z,13.75
2022-11-22T05:26:38.340Z,13.32
2022-11-22T05:29:11.881Z,13.60
2022-11-22T05:31:48.351Z,13.93
2022-11-22T05:34:22.317Z,13.35
2022-11-22T05:36:53.396Z,13.20
2022-11-22T05:39:24.441Z,14.00
2022-11-22T05:41:58.564Z,13.07
2022-11-22T05:44:29.899Z,13.32
2022-11-22T05:47:02.610Z,13.05
2022-11-22T05:49:34.698Z,12.82
2022-11-22T05:52:06.682Z,13.35
2022-11-22T05:57:08.583Z,13.10
2022-11-22T05:59:43.960Z,12.70
2022-11-22T06:02:15.748Z,12.55
2022-11-22T06:04:46.974Z,12.77
2022-11-22T06:07:18.624Z,11.85
2022-11-22T06:09:49.761Z,12.85
2022-11-22T06:12:21.000Z,12.83
2022-11-22T06:14:52.332Z,12.65
2022-11-22T06:17:23.836Z,13.30
2022-11-22T06:19:54.928Z,13.38
2022-11-22T06:22:25.965Z,11.95
2022-11-22T06:24:57.205Z,12.63
2022-11-22T06:27:29.365Z,13.25
2022-11-22T06:30:00.446Z,12.37
2022-11-22T06:32:35.445Z,12.73
2022-11-22T06:35:06.721Z,13.13
2022-11-22T06:37:37.945Z,13.10
2022-11-22T06:40:13.023Z,12.93
2022-11-22T06:42:44.148Z,12.93
2022-11-22T06:45:15.246Z,12.60
2022-11-22T06:47:46.554Z,12.52
2022-11-22T06:50:21.782Z,13.40
2022-11-22T06:52:56.657Z,12.90
2022-11-22T06:55:49.500Z,13.60
2022-11-22T06:58:19.114Z,11.90
2022-11-22T07:00:50.676Z,13.20
2022-11-22T07:03:21.984Z,13.07
2022-11-22T07:05:54.079Z,13.23
2022-11-22T07:08:25.892Z,13.10
2022-11-22T07:10:57.079Z,13.35
2022-11-22T07:13:28.543Z,13.10
2022-11-22T07:16:02.540Z,12.77
2022-11-22T07:18:34.409Z,13.75
2022-11-22T07:21:12.255Z,13.63
2022-11-22T07:23:45.531Z,13.23
2022-11-22T07:26:18.213Z,13.35
2022-11-22T07:28:50.826Z,12.18
2022-11-22T07:31:22.769Z,13.02
2022-11-22T07:36:24.744Z,12.65
2022-11-22T07:38:55.986Z,13.50
2022-11-22T07:41:27.433Z,14.60
2022-11-22T07:43:59.042Z,14.18
2022-11-22T07:46:32.837Z,13.37
2022-11-22T07:49:04.506Z,13.63
2022-11-22T07:51:35.931Z,12.90
2022-11-22T07:54:07.139Z,12.35
2022-11-22T07:56:38.330Z,12.67
2022-11-22T07:59:09.467Z,11.83
2022-11-22T08:01:40.648Z,11.30
2022-11-22T08:04:11.815Z,10.55
2022-11-22T08:06:43.045Z,9.47
2022-11-22T08:09:14.251Z,10.47
2022-11-22T08:11:45.520Z,11.27
2022-11-22T08:14:16.754Z,9.87
2022-11-22T08:16:48.208Z,9.57
2022-11-22T08:19:20.915Z,8.50
2022-11-22T08:21:58.140Z,8.60
2022-11-22T08:24:29.663Z,8.80
2022-11-22T08:27:00.710Z,8.13
2022-11-22T08:29:33.790Z,7.55
2022-11-22T08:32:04.879Z,7.88
2022-11-22T08:34:38.142Z,8.07
2022-11-22T08:37:10.038Z,8.98
2022-11-22T08:39:41.285Z,8.90
2022-11-22T08:42:12.946Z,8.18
2022-11-22T08:44:44.201Z,8.10
2022-11-22T08:47:15.220Z,8.00
2022-11-22T08:49:46.541Z,7.90
2022-11-22T08:52:17.681Z,7.43
2022-11-22T08:54:51.952Z,7.50
2022-11-22T08:57:23.112Z,6.28
2022-11-22T08:59:54.412Z,7.10
2022-11-22T09:02:25.854Z,6.50
2022-11-22T09:04:56.940Z,6.83
2022-11-22T09:10:19.066Z,6.20
2022-11-22T09:12:50.508Z,6.07
2022-11-22T09:15:21.577Z,6.30
2022-11-22T09:17:53.044Z,7.38
2022-11-22T09:20:24.482Z,6.28
2022-11-22T09:22:55.809Z,6.00
2022-11-22T09:25:26.999Z,5.28
2022-11-22T09:28:01.449Z,5.67
2022-11-22T09:30:33.526Z,5.63
2022-11-22T09:33:05.457Z,6.10
2022-11-22T09:35:36.635Z,5.07
2022-11-22T09:38:09.849Z,5.18
2022-11-22T09:40:41.008Z,4.78
2022-11-22T09:43:53.568Z,5.85
2022-11-22T09:46:34.218Z,5.30
2022-11-22T09:49:29.078Z,5.20
2022-11-22T09:52:22.793Z,4.65
2022-11-22T09:54:59.585Z,5.50
2022-11-22T09:57:49.609Z,5.82
2022-11-22T10:00:29.266Z,5.95
2022-11-22T10:03:12.256Z,6.22
2022-11-22T10:06:00.015Z,5.72
2022-11-22T10:08:49.382Z,5.60
2022-11-22T10:11:59.209Z,6.35
2022-11-22T10:14:46.443Z,5.80
2022-11-22T10:17:20.190Z,5.70
2022-11-22T10:20:05.654Z,6.93
2022-11-22T10:22:37.531Z,6.07
2022-11-22T10:25:34.428Z,6.15
2022-11-22T10:28:41.141Z,5.57
2022-11-22T10:31:25.173Z,5.45
2022-11-22T10:33:57.452Z,5.80
2022-11-22T10:36:38.580Z,5.75
2022-11-22T10:39:32.967Z,5.78
2022-11-22T10:42:21.397Z,6.25
2022-11-22T10:45:37.767Z,5.25
2022-11-22T10:48:18.008Z,5.50
2022-11-22T10:50:55.090Z,4.95
2022-11-22T10:53:51.464Z,4.65
2022-11-22T10:56:43.670Z,5.30
2022-11-22T10:59:48.639Z,4.95
2022-11-22T11:02:55.294Z,3.85
2022-11-22T11:05:37.441Z,3.50
2022-11-22T11:11:04.519Z,3.78
2022-11-22T11:13:46.258Z,4.53
2022-11-22T11:16:24.921Z,4.07
2022-11-22T11:19:14.651Z,3.72
2022-11-22T11:21:47.171Z,4.22
2022-11-22T11:24:19.094Z,3.50
2022-11-22T11:26:59.019Z,4.28
2022-11-22T11:29:49.878Z,3.80
2022-11-22T11:32:22.766Z,3.80
2022-11-22T11:35:06.004Z,3.92
2022-11-22T11:37:39.207Z,4.20
2022-11-22T11:40:34.556Z,5.20
2022-11-22T11:43:21.671Z,6.13
2022-11-22T11:45:53.670Z,6.15
2022-11-22T11:48:30.378Z,6.07
2022-11-22T11:51:18.712Z,6.22
2022-11-22T11:53:58.632Z,6.70
2022-11-22T11:56:35.376Z,6.30
2022-11-22T11:59:13.863Z,6.25
2022-11-22T12:02:07.070Z,5.82
2022-11-22T12:04:49.983Z,7.57
2022-11-22T12:07:32.361Z,7.40
2022-11-22T12:10:24.872Z,7.38
2022-11-22T12:13:04.205Z,6.93
2022-11-22T12:15:47.941Z,6.95
2022-11-22T12:18:37.339Z,7.60
2022-11-22T12:21:28.425Z,7.40
2022-11-22T12:25:02.866Z,6.63
2022-11-22T12:27:18.288Z,7.10
2022-11-22T12:29:49.798Z,7.17
2022-11-22T12:32:59.954Z,6.72
2022-11-22T12:35:43.075Z,6.65
2022-11-22T12:38:25.300Z,6.35
2022-11-22T12:41:02.354Z,6.30
2022-11-22T12:43:49.399Z,7.13
2022-11-22T12:46:46.128Z,6.65
2022-11-22T12:49:31.903Z,6.35
2022-11-22T12:52:44.956Z,5.78
2022-11-22T12:55:36.916Z,7.15
2022-11-22T12:58:37.219Z,6.60
2022-11-22T13:01:22.755Z,6.75
2022-11-22T13:04:06.339Z,6.43
2022-11-22T13:06:59.502Z,5.75
2022-11-22T13:09:37.444Z,6.47
2022-11-22T13:12:14.127Z,6.38
2022-11-22T13:14:51.453Z,6.53
2022-11-22T13:17:24.761Z,5.85
2022-11-22T13:20:11.519Z,5.95
2022-11-22T13:22:58.701Z,5.80
2022-11-22T13:25:39.154Z,6.22
2022-11-22T13:28:20.543Z,6.32
2022-11-22T13:31:12.177Z,5.75
2022-11-22T13:33:56.543Z,5.63
2022-11-22T13:36:34.073Z,5.68
2022-11-22T13:39:14.237Z,6.53
2022-11-22T13:42:04.817Z,5.55
2022-11-22T13:44:40.745Z,5.53
2022-11-22T13:47:15.147Z,5.72
2022-11-22T13:49:50.271Z,5.20
2022-11-22T13:52:22.235Z,6.15
2022-11-22T13:54:58.510Z,5.65
2022-11-22T13:57:37.068Z,4.90
2022-11-22T14:00:17.274Z,5.57
2022-11-22T14:03:15.250Z,4.55
2022-11-22T14:05:51.520Z,4.72
2022-11-22T14:08:45.519Z,4.47
2022-11-22T14:11:22.745Z,5.18
2022-11-22T14:14:23.665Z,4.57
2022-11-22T14:17:07.651Z,4.50
2022-11-22T14:19:58.774Z,3.92
2022-11-22T14:22:46.214Z,3.72
2022-11-22T14:25:53.387Z,4.03
2022-11-22T14:28:34.000Z,3.72
2022-11-22T14:31:35.357Z,3.10
2022-11-22T14:34:23.083Z,3.38
2022-11-22T14:37:12.618Z,2.70
2022-11-22T14:39:54.689Z,2.88
2022-11-22T14:42:38.403Z,3.03
2022-11-22T14:45:12.836Z,2.80
2022-11-22T14:47:53.883Z,2.95
2022-11-22T14:50:39.375Z,2.70
2022-11-22T14:53:22.576Z,2.70
2022-11-22T14:56:05.472Z,2.60
2022-11-22T14:58:45.807Z,2.70
2022-11-22T15:01:41.708Z,2.58
2022-11-22T15:09:17.860Z,2.50
2022-11-22T15:10:42.628Z,2.10
2022-11-22T15:13:33.385Z,2.53
2022-11-22T15:59:48.415Z,2.28
2022-11-22T16:02:24.087Z,2.55
2022-11-22T16:06:07.663Z,2.10
2022-11-22T16:07:51.174Z,2.40
2022-11-22T16:10:34.626Z,2.13
2022-11-22T16:13:23.764Z,2.20
2022-11-22T16:16:13.067Z,2.45
2022-11-22T16:18:45.617Z,2.22
2022-11-22T16:21:24.034Z,2.40
2022-11-22T16:24:18.065Z,2.13
2022-11-22T16:26:58.063Z,2.53
2022-11-22T16:29:33.485Z,1.90
2022-11-22T16:32:13.786Z,1.67
2022-11-22T16:34:46.922Z,2.30
2022-11-22T16:37:41.373Z,2.20
2022-11-22T16:40:16.592Z,1.83
2022-11-22T16:42:47.754Z,2.28
2022-11-22T16:45:22.273Z,2.03
2022-11-22T16:48:24.114Z,1.73
2022-11-22T16:50:47.849Z,2.00
2022-11-22T16:53:27.501Z,2.30
2022-11-22T16:55:58.594Z,2.10
2022-11-22T16:58:31.178Z,1.80
2022-11-22T17:01:04.464Z,1.80
2022-11-22T17:03:40.378Z,1.77
2022-11-22T17:06:23.854Z,1.60
2022-11-22T17:08:57.180Z,1.75
2022-11-22T17:11:31.493Z,1.75
2022-11-22T17:14:02.790Z,2.05
2022-11-22T17:16:34.007Z,2.20
2022-11-22T17:19:05.557Z,2.05
2022-11-22T17:24:20.704Z,1.60
2022-11-22T17:26:51.884Z,2.17
2022-11-22T17:32:15.180Z,2.00
2022-11-22T17:34:46.265Z,1.95
2022-11-22T17:37:17.328Z,2.10
2022-11-22T17:39:52.465Z,1.73
2022-11-22T17:42:25.428Z,2.20
2022-11-22T17:44:56.542Z,1.67
2022-11-22T17:47:29.014Z,1.63
2022-11-22T17:50:00.144Z,1.85
2022-11-22T17:52:31.576Z,1.50
2022-11-22T17:55:06.185Z,1.60
2022-11-22T17:57:39.462Z,1.65
2022-11-22T18:00:11.450Z,1.87
2022-11-22T18:02:43.404Z,2.20
2022-11-22T18:05:15.025Z,1.80
2022-11-22T18:07:46.231Z,1.80
2022-11-22T18:10:17.430Z,1.60
2022-11-22T18:13:13.455Z,1.73
2022-11-22T18:15:40.634Z,1.60
2022-11-22T18:21:02.143Z,1.80
2022-11-22T18:23:38.568Z,1.73
2022-11-22T18:31:54.903Z,2.10
2022-11-22T18:34:26.566Z,1.65
2022-11-22T18:37:03.189Z,1.80
2022-11-22T18:39:40.228Z,1.92
2022-11-22T18:42:16.346Z,1.73
2022-11-22T18:44:47.492Z,1.50
2022-11-22T18:47:18.634Z,2.00
2022-11-22T18:49:49.879Z,1.70
2022-11-22T18:52:24.383Z,1.73
2022-11-22T18:54:57.623Z,2.00
2022-11-22T18:57:29.259Z,1.77
2022-11-22T19:00:00.590Z,1.85
2022-11-22T19:02:31.905Z,1.98
2022-11-22T19:05:03.498Z,1.63
2022-11-22T19:07:34.620Z,1.52
2022-11-22T19:10:06.314Z,1.65
2022-11-22T19:12:38.392Z,1.50
2022-11-22T19:15:10.132Z,1.80
2022-11-22T19:17:41.897Z,1.63
2022-11-22T19:20:39.386Z,1.65
2022-11-22T19:23:06.387Z,1.77
2022-11-22T19:28:08.227Z,1.48
2022-11-22T19:30:42.918Z,1.85
2022-11-22T19:33:17.047Z,2.05
2022-11-22T19:36:02.617Z,1.85
2022-11-22T19:38:34.081Z,1.60
2022-11-22T19:41:10.434Z,1.63
2022-11-22T19:43:41.824Z,1.63
2022-11-22T19:46:14.176Z,1.40
2022-11-22T19:51:18.710Z,1.80
2022-11-22T19:53:50.672Z,1.30
2022-11-22T19:56:22.873Z,1.75
2022-11-22T19:58:56.283Z,1.73
2022-11-22T20:01:29.418Z,1.75
2022-11-22T20:04:05.003Z,1.70
2022-11-22T20:06:37.838Z,1.80
2022-11-22T20:09:12.465Z,1.65
2022-11-22T20:11:45.721Z,1.75
2022-11-22T20:14:16.789Z,1.50
2022-11-22T20:16:47.930Z,1.67
2022-11-22T20:19:19.071Z,1.48
2022-11-22T20:21:51.113Z,1.30
2022-11-22T20:24:22.631Z,1.23
2022-11-22T20:26:53.681Z,1.40
2022-11-22T20:29:26.463Z,1.30
2022-11-22T20:31:58.196Z,1.70
2022-11-22T20:34:34.451Z,2.08
2022-11-22T20:37:05.667Z,1.55
2022-11-22T20:39:38.501Z,1.60
2022-11-22T20:42:33.785Z,1.50
2022-11-22T20:45:01.423Z,1.67
2022-11-22T20:47:33.369Z,1.63
2022-11-22T20:50:05.015Z,1.67
2022-11-22T20:52:36.268Z,1.50
2022-11-22T20:55:07.786Z,1.52
2022-11-22T20:57:39.872Z,1.42
2022-11-22T21:00:12.457Z,1.50
2022-11-22T21:02:43.570Z,1.40
2022-11-22T21:05:14.849Z,1.40
2022-11-22T21:07:46.609Z,1.60
2022-11-22T21:10:17.905Z,1.50
2022-11-22T21:12:48.949Z,1.67
2022-11-22T21:15:20.507Z,1.67
2022-11-22T21:18:23.206Z,1.70
2022-11-22T21:20:42.925Z,1.10
2022-11-22T21:23:15.107Z,1.30
2022-11-22T21:25:46.213Z,1.65
2022-11-22T21:28:17.426Z,1.70
2022-11-22T21:30:48.518Z,1.40
2022-11-22T21:33:19.596Z,1.70
2022-11-22T21:35:50.895Z,1.85
2022-11-22T21:38:30.982Z,1.67
2022-11-22T21:41:24.383Z,1.70
2022-11-22T21:46:26.863Z,1.90
2022-11-22T21:51:29.535Z,1.52
2022-11-22T21:54:05.114Z,1.63
2022-11-22T21:56:36.888Z,1.90
2022-11-22T21:59:08.086Z,2.00
2022-11-22T22:01:39.253Z,1.73
2022-11-22T22:04:10.384Z,1.60
2022-11-22T22:06:45.818Z,1.80
2022-11-22T22:09:17.242Z,1.65
2022-11-22T22:11:49.442Z,1.73
2022-11-22T22:14:20.735Z,2.17
2022-11-22T22:16:52.750Z,1.73
2022-11-22T22:19:23.861Z,1.80
2022-11-22T22:21:55.122Z,1.63
2022-11-22T22:24:26.804Z,1.65
2022-11-22T22:26:57.992Z,1.98
2022-11-22T22:29:29.529Z,1.97
2022-11-22T22:32:01.917Z,1.77
2022-11-22T22:34:37.595Z,1.80
2022-11-22T22:37:08.661Z,1.70
2022-11-22T22:39:39.919Z,1.88
2022-11-22T22:42:11.424Z,1.77
2022-11-22T22:44:42.630Z,2.10
2022-11-22T22:47:14.169Z,2.10
2022-11-22T22:49:45.287Z,1.80
2022-11-22T22:52:16.598Z,1.73
2022-11-22T22:54:47.739Z,1.70
2022-11-22T22:57:18.870Z,1.80
2022-11-22T22:59:49.882Z,1.67
2022-11-22T23:02:21.086Z,1.95
2022-11-22T23:04:52.524Z,2.08
2022-11-22T23:07:23.813Z,2.05
2022-11-22T23:09:55.355Z,2.08
2022-11-22T23:12:26.384Z,2.20
2022-11-22T23:14:57.493Z,2.00
2022-11-22T23:17:28.815Z,2.50
2022-11-22T23:20:00.428Z,2.00
2022-11-22T23:22:31.871Z,1.85
2022-11-22T23:25:03.192Z,2.07
2022-11-22T23:27:34.634Z,1.50
2022-11-22T23:30:06.758Z,2.10
2022-11-22T23:32:38.302Z,2.50
2022-11-22T23:35:09.918Z,3.80
2022-11-22T23:37:41.441Z,6.22
2022-11-22T23:40:13.161Z,9.70
2022-11-22T23:42:44.270Z,12.38
2022-11-22T23:45:15.477Z,13.73
2022-11-22T23:47:46.722Z,14.50
2022-11-22T23:50:18.238Z,14.00
2022-11-22T23:52:49.677Z,11.15
2022-11-22T23:55:20.965Z,10.55
2022-11-22T23:57:52.654Z,8.95
